createdAt,value
2019-02-27T00:01:53.657Z,103212.27
2019-02-27T00:06:55.602Z,103205.05
2019-02-27T00:11:57.192Z,103208.91
2019-02-27T00:16:58.881Z,103208.67
2019-02-27T00:22:00.485Z,103204.56
2019-02-27T00:27:02.078Z,103201.41
2019-02-27T00:32:04.029Z,103201.88
2019-02-27T00:37:05.598Z,103193.47
2019-02-27T00:42:07.186Z,103192.67
2019-02-27T00:47:08.808Z,103193.53
2019-02-27T00:52:10.799Z,103186.84
2019-02-27T00:57:12.495Z,103178.05
2019-02-27T01:02:14.383Z,103173.17
2019-02-27T01:07:20.212Z,103161.86
2019-02-27T01:12:19.867Z,103162.78
2019-02-27T01:17:23.855Z,103160.72
2019-02-27T01:22:24.939Z,103157.09
2019-02-27T01:27:26.469Z,103144.09
2019-02-27T01:32:28.892Z,103144.18
2019-02-27T01:37:32.342Z,103130.39
2019-02-27T01:42:34.202Z,103132.04
2019-02-27T01:47:36.539Z,103132.17
2019-02-27T01:52:38.305Z,103111.53
2019-02-27T01:57:39.891Z,103109.17
2019-02-27T02:02:41.459Z,103102.75
2019-02-27T02:07:45.527Z,103105.22
2019-02-27T02:12:53.384Z,103096.23
2019-02-27T02:18:43.171Z,103091.64
2019-02-27T02:24:21.685Z,103085.55
2019-02-27T02:29:52.995Z,103087.59
2019-02-27T02:35:32.384Z,103075.61
2019-02-27T02:40:56.947Z,103070.98
2019-02-27T02:46:13.221Z,103064.39
2019-02-27T02:51:32.055Z,103052.10
2019-02-27T02:56:39.068Z,103038.48
2019-02-27T03:01:51.908Z,103038.19
2019-02-27T03:07:44.496Z,103040.73
2019-02-27T03:13:20.323Z,103036.23
2019-02-27T03:19:18.965Z,103021.70
2019-02-27T03:25:14.918Z,103010.01
2019-02-27T03:30:52.078Z,103010.57
2019-02-27T03:36:16.350Z,103002.70
2019-02-27T03:41:58.513Z,102999.13
2019-02-27T03:47:16.729Z,102989.11
2019-02-27T03:52:56.207Z,102979.95
2019-02-27T03:58:38.463Z,102981.08
2019-02-27T04:04:13.193Z,102967.56
2019-02-27T04:09:18.532Z,102960.14
2019-02-27T04:14:40.081Z,102957.85
2019-02-27T04:19:40.640Z,102948.01
2019-02-27T04:24:42.435Z,102946.92
2019-02-27T04:29:44.080Z,102938.05
2019-02-27T04:34:45.633Z,102936.38
2019-02-27T04:39:47.176Z,102935.08
2019-02-27T04:44:48.754Z,102937.38
2019-02-27T04:49:50.323Z,102936.77
2019-02-27T04:54:52.109Z,102929.15
2019-02-27T04:59:53.694Z,102923.71
2019-02-27T05:04:55.724Z,102923.09
2019-02-27T05:09:57.687Z,102921.36
2019-02-27T05:15:00.944Z,102931.89
2019-02-27T05:20:03.091Z,102937.32
2019-02-27T05:25:04.780Z,102933.42
2019-02-27T05:30:06.692Z,102936.02
2019-02-27T05:35:08.288Z,102920.36
2019-02-27T05:40:10.307Z,102917.84
2019-02-27T05:45:11.887Z,102912.43
2019-02-27T05:50:13.796Z,102917.92
2019-02-27T05:55:15.380Z,102912.05
2019-02-27T06:00:17.030Z,102916.38
2019-02-27T06:05:18.801Z,102906.00
2019-02-27T06:10:21.137Z,102907.91
2019-02-27T06:15:26.045Z,102910.33
2019-02-27T06:20:27.602Z,102901.48
2019-02-27T06:25:29.395Z,102901.48
2019-02-27T06:30:31.405Z,102891.70
2019-02-27T06:35:36.577Z,102883.98
2019-02-27T06:40:42.120Z,102888.11
2019-02-27T06:45:45.482Z,102897.44
2019-02-27T06:50:45.261Z,102892.69
2019-02-27T06:55:46.994Z,102889.11
2019-02-27T07:00:48.953Z,102884.15
2019-02-27T07:05:50.562Z,102884.53
2019-02-27T07:10:52.129Z,102886.58
2019-02-27T07:15:55.579Z,102887.75
2019-02-27T07:20:58.424Z,102879.64
2019-02-27T07:26:00.891Z,102882.45
2019-02-27T07:31:02.538Z,102885.83
2019-02-27T07:36:04.602Z,102884.05
2019-02-27T07:41:06.224Z,102881.88
2019-02-27T07:46:07.832Z,102872.64
2019-02-27T07:51:09.426Z,102879.23
2019-02-27T07:56:11.485Z,102880.94
2019-02-27T08:01:13.455Z,102885.79
2019-02-27T08:06:15.271Z,102893.48
2019-02-27T08:11:16.842Z,102897.52
2019-02-27T08:16:18.828Z,102887.37
2019-02-27T08:21:20.426Z,102891.47
2019-02-27T08:26:22.454Z,102894.62
2019-02-27T08:31:27.890Z,102889.16
2019-02-27T08:36:28.014Z,102878.42
2019-02-27T08:41:31.465Z,102872.25
2019-02-27T08:46:34.021Z,102876.86
2019-02-27T08:51:39.788Z,102866.61
2019-02-27T08:56:40.787Z,102868.27
2019-02-27T09:01:42.485Z,102870.66
2019-02-27T09:06:44.255Z,102856.94
2019-02-27T09:11:45.830Z,102850.30
2019-02-27T09:16:47.453Z,102842.63
2019-02-27T09:21:49.062Z,102830.13
2019-02-27T09:26:51.034Z,102827.69
2019-02-27T09:31:52.699Z,102839.70
2019-02-27T09:36:54.368Z,102823.49
2019-02-27T09:41:55.947Z,102821.53
2019-02-27T09:46:57.485Z,102814.33
2019-02-27T09:51:59.086Z,102800.97
2019-02-27T09:57:02.251Z,102789.66
2019-02-27T10:02:06.362Z,102793.55
2019-02-27T10:07:08.628Z,102792.55
2019-02-27T10:12:11.311Z,102783.05
2019-02-27T10:17:12.967Z,102785.09
2019-02-27T10:22:17.889Z,102776.20
2019-02-27T10:27:18.096Z,102770.34
2019-02-27T10:32:20.061Z,102767.50
2019-02-27T10:37:21.800Z,102766.21
2019-02-27T10:42:23.433Z,102761.50
2019-02-27T10:47:25.244Z,102750.56
2019-02-27T10:52:27.206Z,102752.83
2019-02-27T10:57:32.538Z,102751.85
2019-02-27T11:02:32.679Z,102738.15
2019-02-27T11:07:34.252Z,102736.84
2019-02-27T11:12:35.915Z,102733.81
2019-02-27T11:17:37.632Z,102721.45
2019-02-27T11:22:39.207Z,102720.16
2019-02-27T11:27:40.822Z,102712.84
2019-02-27T11:32:42.405Z,102700.20
2019-02-27T11:37:46.630Z,102690.13
2019-02-27T11:42:47.517Z,102677.13
2019-02-27T11:47:49.696Z,102665.16
2019-02-27T11:52:51.393Z,102663.56
2019-02-27T11:57:53.007Z,102652.63
2019-02-27T12:02:54.994Z,102658.13
2019-02-27T12:07:56.607Z,102645.21
2019-02-27T12:13:00.727Z,102632.28
2019-02-27T12:18:02.094Z,102622.73
2019-02-27T12:23:03.869Z,102616.81
2019-02-27T12:28:05.514Z,102607.67
2019-02-27T12:33:07.122Z,102600.52
2019-02-27T12:38:08.686Z,102593.16
2019-02-27T12:43:10.935Z,102581.86
2019-02-27T12:48:13.350Z,102576.88
2019-02-27T12:53:15.001Z,102565.95
2019-02-27T12:58:17.053Z,102548.98
2019-02-27T13:03:18.694Z,102541.30
2019-02-27T13:08:20.289Z,102542.10
2019-02-27T13:13:23.277Z,102533.52
2019-02-27T13:18:25.455Z,102535.20
2019-02-27T13:23:27.032Z,102527.45
2019-02-27T13:28:28.588Z,102520.61
2019-02-27T13:33:30.131Z,102522.45
2019-02-27T13:38:31.725Z,102514.64
2019-02-27T13:43:33.305Z,102511.46
2019-02-27T13:48:37.365Z,102506.45
2019-02-27T13:53:38.353Z,102504.96
2019-02-27T13:58:39.987Z,102491.08
2019-02-27T14:03:41.589Z,102484.16
2019-02-27T14:08:43.852Z,102476.65
2019-02-27T14:13:45.580Z,102479.06
2019-02-27T14:18:49.790Z,102459.51
2019-02-27T14:23:50.708Z,102454.59
2019-02-27T14:28:55.120Z,102441.70
2019-02-27T14:33:56.157Z,102438.92
2019-02-27T14:38:58.145Z,102438.88
2019-02-27T14:44:02.871Z,102429.31
2019-02-27T14:49:04.491Z,102427.59
2019-02-27T14:54:06.107Z,102416.70
2019-02-27T14:59:07.953Z,102415.84
2019-02-27T15:04:09.586Z,102406.27
2019-02-27T15:09:11.188Z,102399.03
2019-02-27T15:14:12.846Z,102397.55
2019-02-27T15:19:14.462Z,102394.17
2019-02-27T15:24:16.127Z,102385.36
2019-02-27T15:29:17.723Z,102378.82
2019-02-27T15:34:19.340Z,102377.42
2019-02-27T15:39:21.335Z,102374.02
2019-02-27T15:44:22.898Z,102368.06
2019-02-27T15:49:24.473Z,102361.26
2019-02-27T15:54:26.090Z,102361.05
2019-02-27T16:04:44.435Z,102345.19
2019-02-27T16:09:46.383Z,102337.19
2019-02-27T16:14:48.358Z,102333.39
2019-02-27T16:19:50.447Z,102335.86
2019-02-27T16:24:52.153Z,102325.63
2019-02-27T16:29:54.107Z,102326.17
2019-02-27T16:34:57.303Z,102318.11
2019-02-27T16:39:59.048Z,102313.27
2019-02-27T16:45:00.808Z,102309.61
2019-02-27T16:50:02.354Z,102303.19
2019-02-27T16:55:04.648Z,102290.65
2019-02-27T17:00:07.088Z,102283.00
2019-02-27T17:05:09.517Z,102282.25
2019-02-27T17:10:14.966Z,102275.67
2019-02-27T17:15:17.850Z,102284.05
2019-02-27T17:20:19.574Z,102276.67
2019-02-27T17:25:21.161Z,102278.50
2019-02-27T17:30:27.661Z,102270.72
2019-02-27T17:35:29.192Z,102277.78
2019-02-27T17:40:30.747Z,102270.05
2019-02-27T17:45:32.406Z,102261.36
2019-02-27T17:50:33.933Z,102263.73
2019-02-27T17:55:38.231Z,102253.22
2019-02-27T18:00:39.249Z,102256.30
2019-02-27T18:05:41.189Z,102255.86
2019-02-27T18:10:42.927Z,102243.64
2019-02-27T18:15:44.729Z,102234.01
2019-02-27T18:20:46.976Z,102232.78
2019-02-27T18:25:48.929Z,102233.84
2019-02-27T18:30:53.209Z,102231.80
2019-02-27T18:35:54.596Z,102232.77
2019-02-27T18:40:56.628Z,102229.09
2019-02-27T18:45:58.972Z,102238.05
2019-02-27T18:51:01.289Z,102229.36
2019-02-27T18:56:03.479Z,102226.27
2019-02-27T19:01:09.520Z,102211.91
2019-02-27T19:06:12.015Z,102219.20
2019-02-27T19:11:12.922Z,102213.14
2019-02-27T19:16:17.455Z,102217.61
2019-02-27T19:21:19.907Z,102203.20
2019-02-27T19:26:22.226Z,102204.53
2019-02-27T19:31:24.113Z,102202.65
2019-02-27T19:36:30.519Z,102201.40
2019-02-27T19:41:29.447Z,102203.80
2019-02-27T19:46:31.482Z,102201.06
2019-02-27T19:51:33.192Z,102191.11
2019-02-27T19:56:35.506Z,102194.23
2019-02-27T20:01:40.466Z,102190.58
2019-02-27T20:06:41.915Z,102185.23
2019-02-27T20:11:43.553Z,102187.75
2019-02-27T20:16:45.155Z,102184.37
2019-02-27T20:21:50.554Z,102187.71
2019-02-27T20:26:54.685Z,102186.78
2019-02-27T20:31:58.781Z,102186.34
2019-02-27T20:37:03.305Z,102181.71
2019-02-27T20:42:05.740Z,102178.07
2019-02-27T20:47:07.589Z,102170.16
2019-02-27T20:52:14.539Z,102177.60
2019-02-27T20:57:12.823Z,102167.53
2019-02-27T21:02:14.763Z,102174.79
2019-02-27T21:07:22.262Z,102170.66
2019-02-27T21:12:19.859Z,102157.24
2019-02-27T21:17:22.375Z,102149.31
2019-02-27T21:22:28.389Z,102148.29
2019-02-27T21:27:32.934Z,102133.09
2019-02-27T21:32:36.167Z,102131.23
2019-02-27T21:37:37.850Z,102120.89
2019-02-27T21:42:39.547Z,102113.16
2019-02-27T21:47:41.271Z,102111.78
2019-02-27T21:52:42.870Z,102107.05
2019-02-27T21:57:44.561Z,102096.58
2019-02-27T22:02:46.223Z,102087.32
2019-02-27T22:07:47.904Z,102084.74
2019-02-27T22:12:49.571Z,102091.69
2019-02-27T22:17:51.180Z,102085.33
2019-02-27T22:22:52.753Z,102080.40
2019-02-27T22:27:54.398Z,102080.83
2019-02-27T22:32:56.322Z,102070.66
2019-02-27T22:37:57.943Z,102073.66
2019-02-27T22:42:59.517Z,102068.84
2019-02-27T22:48:01.162Z,102058.15
2019-02-27T22:53:02.824Z,102052.73
2019-02-27T22:58:04.765Z,102042.63
2019-02-27T23:03:06.407Z,102036.50
2019-02-27T23:08:07.945Z,102033.38
2019-02-27T23:13:12.438Z,102034.76
2019-02-27T23:18:13.578Z,102033.45
2019-02-27T23:23:15.156Z,102037.35
2019-02-27T23:28:16.802Z,102039.16
2019-02-27T23:33:18.356Z,102037.33
2019-02-27T23:38:20.007Z,102042.12
2019-02-27T23:43:22.208Z,102025.63
2019-02-27T23:48:24.180Z,102026.50
2019-02-27T23:53:27.140Z,102014.22
2019-02-27T23:58:29.654Z,102017.70
